Decoded Metar for CYIO (POND INLET in NU, CANADA) (IATA:YIO) | Meteo·Mobile Aviation Weather
aviador You're here:

CYIO Decoded Metar

POND INLET in NU, CANADA
Report Time2018-12-11 01:00:00
UTC Time2018-12-11 01:58:01
Flight Rules vfr VFR
Wind060° at 03 kt
W.Decomp.*RWY 02: 0.5 kt HW 3.0 kt RCW
W.Rank060° ranks 9
Current wind is below 060° avg. (9.6)
Visibility9999 m
Phenomena:N/A
Clouds:N/A
Expected CloudBase > 1,200 ft AGL from Temp-Dew spread
CeilingNone
Temp-20°C (ISA -35)
Dew Point-23°C (77% RH)
AAT-24.8°C
QNH1014 hPa
Density Alt-4,268 ft
Elevation187 ft
Report Wrong Elevation
Raw Report
CYIO 110100Z AUTO 06003KT 7SM CLR M20/M23 A2993 RMK SLP145=

Extra information for CYIO:More info

Metar Taf Metar & Taf Last 4 Metars F.Rules Stats Wind Profile Meteogram Temp Stats Airport Information Weather charts Add Link Nearby VenuesMetar ALERT Operation Metar Decoded Social comments